sensor_id;sensor_type;location;lat;lon;timestamp;pressure;altitude;pressure_sealevel;temperature;humidity
10606;BME280;5350;42.698;23.148;2023-11-19T00:00:41;93624.88;;;2.67;95.13
10606;BME280;5350;42.698;23.148;2023-11-19T00:03:07;93603.75;;;2.59;94.69
10606;BME280;5350;42.698;23.148;2023-11-19T00:05:34;93616.88;;;2.69;93.29
10606;BME280;5350;42.698;23.148;2023-11-19T00:08:02;93629.00;;;2.63;94.76
10606;BME280;5350;42.698;23.148;2023-11-19T00:10:31;93628.16;;;2.58;95.17
10606;BME280;5350;42.698;23.148;2023-11-19T00:12:58;93640.13;;;2.59;95.04
10606;BME280;5350;42.698;23.148;2023-11-19T00:15:25;93630.19;;;2.56;95.82
10606;BME280;5350;42.698;23.148;2023-11-19T00:17:51;93642.09;;;2.52;96.86
10606;BME280;5350;42.698;23.148;2023-11-19T00:20:18;93640.44;;;2.46;96.94
10606;BME280;5350;42.698;23.148;2023-11-19T00:22:47;93623.50;;;2.60;96.11
10606;BME280;5350;42.698;23.148;2023-11-19T00:25:18;93640.03;;;2.54;96.53
10606;BME280;5350;42.698;23.148;2023-11-19T00:27:45;93637.34;;;2.49;96.60
10606;BME280;5350;42.698;23.148;2023-11-19T00:30:12;93642.56;;;2.49;96.43
10606;BME280;5350;42.698;23.148;2023-11-19T00:32:39;93629.53;;;2.43;97.16
10606;BME280;5350;42.698;23.148;2023-11-19T00:35:07;93637.59;;;2.47;96.93
10606;BME280;5350;42.698;23.148;2023-11-19T00:37:35;93570.50;;;2.01;96.89
10606;BME280;5350;42.698;23.148;2023-11-19T00:40:02;93634.38;;;2.40;98.09
10606;BME280;5350;42.698;23.148;2023-11-19T00:42:32;93646.19;;;2.48;97.44
10606;BME280;5350;42.698;23.148;2023-11-19T00:44:58;93639.91;;;2.43;97.04
10606;BME280;5350;42.698;23.148;2023-11-19T00:47:26;93641.81;;;2.31;97.69
10606;BME280;5350;42.698;23.148;2023-11-19T00:49:53;93658.63;;;2.46;97.62
10606;BME280;5350;42.698;23.148;2023-11-19T00:52:20;93653.97;;;2.48;97.23
10606;BME280;5350;42.698;23.148;2023-11-19T00:54:47;93652.47;;;2.52;97.53
10606;BME280;5350;42.698;23.148;2023-11-19T00:57:14;93661.59;;;2.54;96.97
10606;BME280;5350;42.698;23.148;2023-11-19T00:59:43;93652.88;;;2.43;96.84
10606;BME280;5350;42.698;23.148;2023-11-19T01:02:10;93653.28;;;2.35;97.19
10606;BME280;5350;42.698;23.148;2023-11-19T01:04:36;93647.75;;;2.49;96.82
10606;BME280;5350;42.698;23.148;2023-11-19T01:07:04;93649.25;;;2.44;96.41
10606;BME280;5350;42.698;23.148;2023-11-19T01:09:31;93651.13;;;2.49;96.47
10606;BME280;5350;42.698;23.148;2023-11-19T01:12:00;93660.81;;;2.54;95.92
10606;BME280;5350;42.698;23.148;2023-11-19T01:14:27;93656.81;;;2.46;95.79
10606;BME280;5350;42.698;23.148;2023-11-19T01:16:55;93651.28;;;2.42;95.77
10606;BME280;5350;42.698;23.148;2023-11-19T01:19:23;93647.44;;;2.45;95.59
10606;BME280;5350;42.698;23.148;2023-11-19T01:21:50;93655.09;;;2.35;95.57
10606;BME280;5350;42.698;23.148;2023-11-19T01:24:16;93662.63;;;2.36;94.67
10606;BME280;5350;42.698;23.148;2023-11-19T01:26:44;93662.16;;;2.39;94.83
10606;BME280;5350;42.698;23.148;2023-11-19T01:29:11;93637.63;;;2.30;93.91
10606;BME280;5350;42.698;23.148;2023-11-19T01:31:39;93661.69;;;2.42;94.19
10606;BME280;5350;42.698;23.148;2023-11-19T01:34:07;93652.34;;;2.41;94.44
10606;BME280;5350;42.698;23.148;2023-11-19T01:36:34;93657.81;;;2.45;93.45
10606;BME280;5350;42.698;23.148;2023-11-19T01:39:01;93654.53;;;2.50;93.02
10606;BME280;5350;42.698;23.148;2023-11-19T01:41:28;93656.34;;;2.32;93.38
10606;BME280;5350;42.698;23.148;2023-11-19T01:43:55;93660.53;;;2.33;93.55
10606;BME280;5350;42.698;23.148;2023-11-19T01:46:22;93672.31;;;2.41;92.74
10606;BME280;5350;42.698;23.148;2023-11-19T01:48:48;93676.25;;;2.43;92.25
10606;BME280;5350;42.698;23.148;2023-11-19T01:51:17;93681.75;;;2.30;93.31
10606;BME280;5350;42.698;23.148;2023-11-19T01:53:44;93680.97;;;2.30;93.15
10606;BME280;5350;42.698;23.148;2023-11-19T01:56:13;93682.41;;;2.21;93.11
10606;BME280;5350;42.698;23.148;2023-11-19T01:58:41;93677.34;;;2.14;93.53
10606;BME280;5350;42.698;23.148;2023-11-19T02:01:10;93656.44;;;2.21;93.59
10606;BME280;5350;42.698;23.148;2023-11-19T02:03:38;93678.91;;;2.15;92.90
10606;BME280;5350;42.698;23.148;2023-11-19T02:06:05;93664.84;;;2.11;93.59
10606;BME280;5350;42.698;23.148;2023-11-19T02:08:34;93649.81;;;2.13;93.73
10606;BME280;5350;42.698;23.148;2023-11-19T02:11:00;93654.78;;;2.15;94.01
10606;BME280;5350;42.698;23.148;2023-11-19T02:13:27;93663.97;;;2.22;94.19
10606;BME280;5350;42.698;23.148;2023-11-19T02:15:54;93669.09;;;2.17;94.03
10606;BME280;5350;42.698;23.148;2023-11-19T02:18:22;93677.41;;;2.19;93.55
10606;BME280;5350;42.698;23.148;2023-11-19T02:20:49;93665.88;;;2.10;94.13
10606;BME280;5350;42.698;23.148;2023-11-19T02:23:17;93667.59;;;2.05;94.07
10606;BME280;5350;42.698;23.148;2023-11-19T02:25:56;93671.94;;;2.16;94.26
10606;BME280;5350;42.698;23.148;2023-11-19T02:28:27;93661.16;;;2.07;94.37
10606;BME280;5350;42.698;23.148;2023-11-19T02:30:54;93655.97;;;2.07;94.05
10606;BME280;5350;42.698;23.148;2023-11-19T02:33:21;93648.41;;;2.22;93.37
10606;BME280;5350;42.698;23.148;2023-11-19T02:35:50;93621.69;;;2.05;93.27
10606;BME280;5350;42.698;23.148;2023-11-19T02:38:17;93651.72;;;2.18;92.96
10606;BME280;5350;42.698;23.148;2023-11-19T02:40:44;93635.75;;;2.09;93.38
10606;BME280;5350;42.698;23.148;2023-11-19T02:43:10;93628.66;;;2.05;93.70
10606;BME280;5350;42.698;23.148;2023-11-19T02:45:40;93663.13;;;2.17;93.08
10606;BME280;5350;42.698;23.148;2023-11-19T02:48:07;93666.44;;;2.12;93.65
10606;BME280;5350;42.698;23.148;2023-11-19T02:50:35;93660.59;;;2.05;94.23
10606;BME280;5350;42.698;23.148;2023-11-19T02:53:02;93659.81;;;2.05;94.68
10606;BME280;5350;42.698;23.148;2023-11-19T02:55:28;93670.72;;;2.07;94.81
10606;BME280;5350;42.698;23.148;2023-11-19T02:58:01;93660.03;;;2.03;94.41
10606;BME280;5350;42.698;23.148;2023-11-19T03:00:33;93656.59;;;2.14;93.92
10606;BME280;5350;42.698;23.148;2023-11-19T03:03:04;93658.16;;;2.15;93.29
10606;BME280;5350;42.698;23.148;2023-11-19T03:05:45;93652.81;;;2.05;94.63
10606;BME280;5350;42.698;23.148;2023-11-19T03:08:13;93570.13;;;1.59;93.76
10606;BME280;5350;42.698;23.148;2023-11-19T03:10:40;93659.88;;;1.93;94.67
10606;BME280;5350;42.698;23.148;2023-11-19T03:13:11;93664.38;;;1.81;95.50
10606;BME280;5350;42.698;23.148;2023-11-19T03:15:39;93666.81;;;1.88;96.17
10606;BME280;5350;42.698;23.148;2023-11-19T03:18:07;93679.81;;;1.76;96.72
10606;BME280;5350;42.698;23.148;2023-11-19T03:20:34;93676.84;;;1.84;96.13
10606;BME280;5350;42.698;23.148;2023-11-19T03:23:01;93677.63;;;1.85;95.78
10606;BME280;5350;42.698;23.148;2023-11-19T03:25:28;93670.41;;;1.87;96.52
10606;BME280;5350;42.698;23.148;2023-11-19T03:27:58;93673.47;;;1.84;96.61
10606;BME280;5350;42.698;23.148;2023-11-19T03:30:26;93684.34;;;1.97;95.56
10606;BME280;5350;42.698;23.148;2023-11-19T03:32:53;93664.53;;;1.91;95.13
10606;BME280;5350;42.698;23.148;2023-11-19T03:35:21;93671.38;;;1.97;94.75
10606;BME280;5350;42.698;23.148;2023-11-19T03:37:48;93688.66;;;1.92;95.80
10606;BME280;5350;42.698;23.148;2023-11-19T03:40:15;93697.31;;;1.97;95.22
10606;BME280;5350;42.698;23.148;2023-11-19T03:42:42;93693.38;;;2.11;94.61
10606;BME280;5350;42.698;23.148;2023-11-19T03:45:09;93711.00;;;2.09;94.37
10606;BME280;5350;42.698;23.148;2023-11-19T03:47:36;93708.34;;;2.04;94.29
10606;BME280;5350;42.698;23.148;2023-11-19T03:50:05;93714.94;;;2.12;93.25
10606;BME280;5350;42.698;23.148;2023-11-19T03:52:34;93731.69;;;2.04;94.33
10606;BME280;5350;42.698;23.148;2023-11-19T03:55:01;93725.16;;;2.18;93.00
10606;BME280;5350;42.698;23.148;2023-11-19T03:57:28;93723.38;;;2.19;93.30
10606;BME280;5350;42.698;23.148;2023-11-19T03:59:55;93707.16;;;2.28;92.89
10606;BME280;5350;42.698;23.148;2023-11-19T04:02:23;93722.28;;;2.31;93.00
10606;BME280;5350;42.698;23.148;2023-11-19T04:04:53;93715.03;;;2.33;92.21
10606;BME280;5350;42.698;23.148;2023-11-19T04:07:20;93719.75;;;2.36;91.96
10606;BME280;5350;42.698;23.148;2023-11-19T04:09:48;93724.38;;;2.34;90.92
10606;BME280;5350;42.698;23.148;2023-11-19T04:12:15;93712.91;;;2.30;91.06
10606;BME280;5350;42.698;23.148;2023-11-19T04:14:41;93720.59;;;2.42;90.74
10606;BME280;5350;42.698;23.148;2023-11-19T04:17:09;93723.53;;;2.29;91.33
10606;BME280;5350;42.698;23.148;2023-11-19T04:19:36;93722.81;;;2.33;91.70
10606;BME280;5350;42.698;23.148;2023-11-19T04:22:03;93705.03;;;2.25;92.27
10606;BME280;5350;42.698;23.148;2023-11-19T04:24:30;93651.06;;;1.94;92.30
10606;BME280;5350;42.698;23.148;2023-11-19T04:26:58;93729.19;;;2.26;91.99
10606;BME280;5350;42.698;23.148;2023-11-19T04:29:25;93709.13;;;2.21;92.17
10606;BME280;5350;42.698;23.148;2023-11-19T04:31:51;93720.78;;;2.19;93.09
10606;BME280;5350;42.698;23.148;2023-11-19T04:34:18;93716.19;;;2.09;93.09
10606;BME280;5350;42.698;23.148;2023-11-19T04:36:45;93732.69;;;2.03;93.11
10606;BME280;5350;42.698;23.148;2023-11-19T04:39:12;93712.38;;;2.00;93.22
10606;BME280;5350;42.698;23.148;2023-11-19T04:41:50;93702.00;;;2.00;93.41
10606;BME280;5350;42.698;23.148;2023-11-19T04:44:19;93683.63;;;1.85;94.08
10606;BME280;5350;42.698;23.148;2023-11-19T04:46:46;93696.59;;;1.85;94.74
10606;BME280;5350;42.698;23.148;2023-11-19T04:49:13;93700.97;;;1.85;94.72
10606;BME280;5350;42.698;23.148;2023-11-19T04:51:40;93711.13;;;1.86;94.64
10606;BME280;5350;42.698;23.148;2023-11-19T04:54:07;93721.34;;;1.93;93.73
10606;BME280;5350;42.698;23.148;2023-11-19T04:56:34;93708.63;;;1.91;94.05
10606;BME280;5350;42.698;23.148;2023-11-19T04:59:02;93727.16;;;1.83;93.79
10606;BME280;5350;42.698;23.148;2023-11-19T05:01:30;93741.69;;;1.84;94.26
10606;BME280;5350;42.698;23.148;2023-11-19T05:03:56;93732.53;;;1.93;94.77
10606;BME280;5350;42.698;23.148;2023-11-19T05:06:26;93737.72;;;1.93;93.54
10606;BME280;5350;42.698;23.148;2023-11-19T05:08:53;93693.13;;;1.51;93.05
10606;BME280;5350;42.698;23.148;2023-11-19T05:11:20;93762.06;;;1.92;93.61
10606;BME280;5350;42.698;23.148;2023-11-19T05:13:47;93756.44;;;1.95;93.60
10606;BME280;5350;42.698;23.148;2023-11-19T05:16:13;93748.16;;;1.98;93.76
10606;BME280;5350;42.698;23.148;2023-11-19T05:18:42;93763.16;;;1.96;93.40
10606;BME280;5350;42.698;23.148;2023-11-19T05:21:08;93756.50;;;2.00;93.92
10606;BME280;5350;42.698;23.148;2023-11-19T05:23:35;93776.16;;;1.96;93.72
10606;BME280;5350;42.698;23.148;2023-11-19T05:26:02;93744.38;;;1.89;93.20
10606;BME280;5350;42.698;23.148;2023-11-19T05:28:29;93760.50;;;1.91;94.60
10606;BME280;5350;42.698;23.148;2023-11-19T05:30:56;93750.13;;;1.91;94.30
10606;BME280;5350;42.698;23.148;2023-11-19T05:33:23;93756.47;;;1.84;93.72
10606;BME280;5350;42.698;23.148;2023-11-19T05:35:51;93754.59;;;1.79;94.96
10606;BME280;5350;42.698;23.148;2023-11-19T05:38:17;93765.50;;;1.81;95.54
10606;BME280;5350;42.698;23.148;2023-11-19T05:40:44;93737.34;;;1.73;94.68
10606;BME280;5350;42.698;23.148;2023-11-19T05:43:13;93754.66;;;1.84;95.46
10606;BME280;5350;42.698;23.148;2023-11-19T05:45:42;93766.06;;;1.83;95.29
10606;BME280;5350;42.698;23.148;2023-11-19T05:48:09;93752.06;;;1.56;95.75
10606;BME280;5350;42.698;23.148;2023-11-19T05:50:36;93777.72;;;1.69;96.62
10606;BME280;5350;42.698;23.148;2023-11-19T05:53:04;93772.53;;;1.69;96.46
10606;BME280;5350;42.698;23.148;2023-11-19T05:55:34;93780.41;;;1.74;96.78
10606;BME280;5350;42.698;23.148;2023-11-19T05:58:01;93752.25;;;1.66;96.11
10606;BME280;5350;42.698;23.148;2023-11-19T06:00:28;93786.88;;;1.88;96.05
10606;BME280;5350;42.698;23.148;2023-11-19T06:02:56;93803.34;;;1.94;95.50
10606;BME280;5350;42.698;23.148;2023-11-19T06:05:22;93806.88;;;1.88;95.12
10606;BME280;5350;42.698;23.148;2023-11-19T06:07:49;93807.75;;;1.93;95.11
10606;BME280;5350;42.698;23.148;2023-11-19T06:10:18;93803.13;;;1.95;95.13
10606;BME280;5350;42.698;23.148;2023-11-19T06:12:46;93810.34;;;1.93;95.28
10606;BME280;5350;42.698;23.148;2023-11-19T06:15:13;93807.06;;;1.98;94.40
10606;BME280;5350;42.698;23.148;2023-11-19T06:17:39;93794.41;;;2.01;94.21
10606;BME280;5350;42.698;23.148;2023-11-19T06:20:07;93800.78;;;1.82;94.72
10606;BME280;5350;42.698;23.148;2023-11-19T06:22:34;93788.94;;;1.86;94.26
10606;BME280;5350;42.698;23.148;2023-11-19T06:25:01;93799.19;;;1.93;94.04
10606;BME280;5350;42.698;23.148;2023-11-19T06:27:34;93802.94;;;1.85;94.06
10606;BME280;5350;42.698;23.148;2023-11-19T06:30:00;93813.50;;;1.95;94.29
10606;BME280;5350;42.698;23.148;2023-11-19T06:32:27;93815.91;;;1.85;93.48
10606;BME280;5350;42.698;23.148;2023-11-19T06:34:55;93822.28;;;1.94;93.43
10606;BME280;5350;42.698;23.148;2023-11-19T06:37:22;93826.97;;;1.81;92.71
10606;BME280;5350;42.698;23.148;2023-11-19T06:39:48;93829.31;;;1.94;92.75
10606;BME280;5350;42.698;23.148;2023-11-19T06:42:15;93818.88;;;1.77;92.95
10606;BME280;5350;42.698;23.148;2023-11-19T06:44:44;93829.56;;;1.81;92.76
10606;BME280;5350;42.698;23.148;2023-11-19T06:47:10;93830.00;;;1.78;92.85
10606;BME280;5350;42.698;23.148;2023-11-19T06:49:37;93815.78;;;1.80;93.06
10606;BME280;5350;42.698;23.148;2023-11-19T06:52:04;93825.94;;;1.82;93.06
10606;BME280;5350;42.698;23.148;2023-11-19T06:54:31;93821.47;;;1.66;91.70
10606;BME280;5350;42.698;23.148;2023-11-19T06:56:58;93818.19;;;1.70;92.96
10606;BME280;5350;42.698;23.148;2023-11-19T06:59:25;93830.72;;;1.73;93.11
10606;BME280;5350;42.698;23.148;2023-11-19T07:01:53;93819.41;;;1.79;92.46
10606;BME280;5350;42.698;23.148;2023-11-19T07:04:20;93814.22;;;1.79;91.45
10606;BME280;5350;42.698;23.148;2023-11-19T07:06:46;93785.22;;;1.54;91.02
10606;BME280;5350;42.698;23.148;2023-11-19T07:09:14;93824.88;;;1.66;90.76
10606;BME280;5350;42.698;23.148;2023-11-19T07:11:41;93812.91;;;1.65;91.02
10606;BME280;5350;42.698;23.148;2023-11-19T07:14:09;93797.69;;;1.57;91.96
10606;BME280;5350;42.698;23.148;2023-11-19T07:16:37;93832.31;;;1.63;91.58
10606;BME280;5350;42.698;23.148;2023-11-19T07:19:05;93829.91;;;1.73;90.66
10606;BME280;5350;42.698;23.148;2023-11-19T07:21:32;93830.22;;;1.88;91.55
10606;BME280;5350;42.698;23.148;2023-11-19T07:23:59;93830.16;;;1.99;90.09
10606;BME280;5350;42.698;23.148;2023-11-19T07:26:26;93827.13;;;2.02;89.87
10606;BME280;5350;42.698;23.148;2023-11-19T07:28:53;93829.63;;;1.97;90.11
10606;BME280;5350;42.698;23.148;2023-11-19T07:31:21;93837.97;;;1.99;89.06
10606;BME280;5350;42.698;23.148;2023-11-19T07:33:49;93848.72;;;1.80;90.12
10606;BME280;5350;42.698;23.148;2023-11-19T07:36:17;93842.22;;;1.77;90.41
10606;BME280;5350;42.698;23.148;2023-11-19T07:38:45;93829.78;;;1.79;89.82
10606;BME280;5350;42.698;23.148;2023-11-19T07:41:12;93832.72;;;1.83;90.01
10606;BME280;5350;42.698;23.148;2023-11-19T07:43:39;93847.38;;;1.77;88.35
10606;BME280;5350;42.698;23.148;2023-11-19T07:46:10;93830.44;;;1.86;88.94
10606;BME280;5350;42.698;23.148;2023-11-19T07:48:38;93829.50;;;1.92;89.47
10606;BME280;5350;42.698;23.148;2023-11-19T07:51:05;93840.63;;;1.76;88.98
10606;BME280;5350;42.698;23.148;2023-11-19T07:53:33;93839.81;;;1.76;88.32
10606;BME280;5350;42.698;23.148;2023-11-19T07:56:00;93850.31;;;1.81;88.89
10606;BME280;5350;42.698;23.148;2023-11-19T07:58:26;93845.91;;;1.81;89.77
10606;BME280;5350;42.698;23.148;2023-11-19T08:00:53;93835.84;;;1.85;90.14
10606;BME280;5350;42.698;23.148;2023-11-19T08:03:20;93850.25;;;1.92;90.83
10606;BME280;5350;42.698;23.148;2023-11-19T08:05:47;93843.50;;;1.91;89.73
10606;BME280;5350;42.698;23.148;2023-11-19T08:08:14;93853.16;;;2.07;89.31
10606;BME280;5350;42.698;23.148;2023-11-19T08:10:42;93855.19;;;2.05;89.85
10606;BME280;5350;42.698;23.148;2023-11-19T08:13:09;93873.16;;;1.95;88.99
10606;BME280;5350;42.698;23.148;2023-11-19T08:15:36;93848.38;;;1.88;89.78
10606;BME280;5350;42.698;23.148;2023-11-19T08:18:03;93862.22;;;1.93;88.66
10606;BME280;5350;42.698;23.148;2023-11-19T08:20:30;93861.44;;;1.93;89.49
10606;BME280;5350;42.698;23.148;2023-11-19T08:22:57;93857.13;;;1.98;89.38
10606;BME280;5350;42.698;23.148;2023-11-19T08:25:24;93868.47;;;2.20;88.06
10606;BME280;5350;42.698;23.148;2023-11-19T08:27:52;93869.16;;;2.16;89.24
10606;BME280;5350;42.698;23.148;2023-11-19T08:30:19;93872.81;;;2.03;87.50
10606;BME280;5350;42.698;23.148;2023-11-19T08:32:45;93870.31;;;2.08;87.52
10606;BME280;5350;42.698;23.148;2023-11-19T08:35:12;93876.13;;;2.27;87.38
10606;BME280;5350;42.698;23.148;2023-11-19T08:37:39;93890.88;;;2.26;86.15
10606;BME280;5350;42.698;23.148;2023-11-19T08:40:07;93907.94;;;2.22;86.85
10606;BME280;5350;42.698;23.148;2023-11-19T08:42:34;93891.44;;;2.28;85.84
10606;BME280;5350;42.698;23.148;2023-11-19T08:45:04;93910.78;;;2.21;85.13
10606;BME280;5350;42.698;23.148;2023-11-19T08:47:30;93880.41;;;2.21;85.17
10606;BME280;5350;42.698;23.148;2023-11-19T08:49:57;93887.84;;;2.29;85.62
10606;BME280;5350;42.698;23.148;2023-11-19T08:52:24;93883.28;;;2.36;84.67
10606;BME280;5350;42.698;23.148;2023-11-19T08:54:50;93871.78;;;2.32;84.19
10606;BME280;5350;42.698;23.148;2023-11-19T08:57:17;93869.34;;;2.26;84.54
10606;BME280;5350;42.698;23.148;2023-11-19T08:59:44;93882.88;;;2.28;85.00
10606;BME280;5350;42.698;23.148;2023-11-19T09:02:13;93881.06;;;2.28;85.07
10606;BME280;5350;42.698;23.148;2023-11-19T09:04:40;93886.69;;;2.37;84.31
10606;BME280;5350;42.698;23.148;2023-11-19T09:07:07;93887.16;;;2.51;84.63
10606;BME280;5350;42.698;23.148;2023-11-19T09:09:35;93880.63;;;2.31;83.32
10606;BME280;5350;42.698;23.148;2023-11-19T09:12:02;93891.91;;;2.25;84.03
10606;BME280;5350;42.698;23.148;2023-11-19T09:14:29;93876.53;;;2.35;83.78
10606;BME280;5350;42.698;23.148;2023-11-19T09:16:56;93872.38;;;2.51;83.92
10606;BME280;5350;42.698;23.148;2023-11-19T09:19:24;93882.78;;;2.68;84.02
10606;BME280;5350;42.698;23.148;2023-11-19T09:21:52;93884.94;;;2.71;83.21
10606;BME280;5350;42.698;23.148;2023-11-19T09:24:18;93893.44;;;2.66;85.09
10606;BME280;5350;42.698;23.148;2023-11-19T09:26:45;93893.13;;;2.63;85.69
10606;BME280;5350;42.698;23.148;2023-11-19T09:29:12;93884.28;;;2.64;85.86
10606;BME280;5350;42.698;23.148;2023-11-19T09:31:39;93889.97;;;2.61;84.50
10606;BME280;5350;42.698;23.148;2023-11-19T09:34:06;93888.38;;;2.60;85.31
10606;BME280;5350;42.698;23.148;2023-11-19T09:36:34;93868.72;;;2.64;86.08
10606;BME280;5350;42.698;23.148;2023-11-19T09:39:01;93865.41;;;2.68;84.66
10606;BME280;5350;42.698;23.148;2023-11-19T09:41:29;93864.63;;;2.68;85.22
10606;BME280;5350;42.698;23.148;2023-11-19T09:43:57;93834.88;;;2.59;86.38
10606;BME280;5350;42.698;23.148;2023-11-19T09:46:24;93839.75;;;2.72;85.46
10606;BME280;5350;42.698;23.148;2023-11-19T09:48:53;93839.28;;;2.58;85.00
10606;BME280;5350;42.698;23.148;2023-11-19T09:51:21;93827.38;;;2.46;85.49
10606;BME280;5350;42.698;23.148;2023-11-19T09:53:49;93833.28;;;2.58;84.46
10606;BME280;5350;42.698;23.148;2023-11-19T09:56:15;93831.00;;;2.78;82.79
10606;BME280;5350;42.698;23.148;2023-11-19T09:58:43;93819.31;;;2.92;82.22
10606;BME280;5350;42.698;23.148;2023-11-19T10:01:10;93822.38;;;2.89;80.96
10606;BME280;5350;42.698;23.148;2023-11-19T10:03:39;93823.47;;;2.93;82.59
10606;BME280;5350;42.698;23.148;2023-11-19T10:06:07;93828.25;;;3.01;82.27
10606;BME280;5350;42.698;23.148;2023-11-19T10:08:36;93811.50;;;2.92;81.49
10606;BME280;5350;42.698;23.148;2023-11-19T10:11:06;93808.56;;;2.88;81.57
10606;BME280;5350;42.698;23.148;2023-11-19T10:13:35;93810.47;;;2.93;82.16
10606;BME280;5350;42.698;23.148;2023-11-19T10:16:04;93819.03;;;3.10;82.36
10606;BME280;5350;42.698;23.148;2023-11-19T10:18:33;93831.41;;;3.03;80.30
10606;BME280;5350;42.698;23.148;2023-11-19T10:21:04;93828.94;;;3.13;79.82
10606;BME280;5350;42.698;23.148;2023-11-19T10:23:31;93833.53;;;3.06;80.61
10606;BME280;5350;42.698;23.148;2023-11-19T10:26:03;93813.94;;;3.15;79.55
10606;BME280;5350;42.698;23.148;2023-11-19T10:28:39;93813.56;;;3.28;79.28
10606;BME280;5350;42.698;23.148;2023-11-19T10:31:06;93809.59;;;3.20;79.57
10606;BME280;5350;42.698;23.148;2023-11-19T10:33:32;93802.59;;;3.04;79.09
10606;BME280;5350;42.698;23.148;2023-11-19T10:35:59;93799.25;;;3.09;78.63
10606;BME280;5350;42.698;23.148;2023-11-19T10:38:26;93811.16;;;3.05;77.51
10606;BME280;5350;42.698;23.148;2023-11-19T10:40:53;93816.16;;;3.06;79.34
10606;BME280;5350;42.698;23.148;2023-11-19T10:43:21;93806.91;;;2.99;79.07
10606;BME280;5350;42.698;23.148;2023-11-19T10:45:50;93799.22;;;3.04;78.91
10606;BME280;5350;42.698;23.148;2023-11-19T10:48:17;93823.19;;;3.11;78.53
10606;BME280;5350;42.698;23.148;2023-11-19T10:50:46;93820.53;;;3.22;78.36
10606;BME280;5350;42.698;23.148;2023-11-19T10:53:17;93819.97;;;3.20;76.51
10606;BME280;5350;42.698;23.148;2023-11-19T10:55:47;93821.88;;;3.25;78.21
10606;BME280;5350;42.698;23.148;2023-11-19T10:58:15;93806.88;;;3.32;77.88
10606;BME280;5350;42.698;23.148;2023-11-19T11:00:44;93801.25;;;3.40;76.53
10606;BME280;5350;42.698;23.148;2023-11-19T11:03:17;93793.59;;;3.50;75.55
10606;BME280;5350;42.698;23.148;2023-11-19T11:05:46;93758.69;;;3.68;75.26
10606;BME280;5350;42.698;23.148;2023-11-19T11:08:14;93778.84;;;3.77;74.00
10606;BME280;5350;42.698;23.148;2023-11-19T11:10:44;93769.28;;;3.61;73.85
10606;BME280;5350;42.698;23.148;2023-11-19T11:13:13;93766.63;;;3.56;74.69
10606;BME280;5350;42.698;23.148;2023-11-19T11:15:40;93770.19;;;3.50;74.62
10606;BME280;5350;42.698;23.148;2023-11-19T11:18:09;93767.16;;;3.58;74.54
10606;BME280;5350;42.698;23.148;2023-11-19T11:20:37;93766.66;;;3.61;74.04
10606;BME280;5350;42.698;23.148;2023-11-19T11:23:33;93754.16;;;3.58;74.28
10606;BME280;5350;42.698;23.148;2023-11-19T11:28:59;93770.44;;;4.19;72.55
10606;BME280;5350;42.698;23.148;2023-11-19T11:31:36;93742.56;;;4.51;71.31
10606;BME280;5350;42.698;23.148;2023-11-19T11:34:28;93751.84;;;5.05;68.27
10606;BME280;5350;42.698;23.148;2023-11-19T11:37:10;93744.72;;;5.37;65.79
10606;BME280;5350;42.698;23.148;2023-11-19T11:39:40;93741.25;;;5.79;63.80
10606;BME280;5350;42.698;23.148;2023-11-19T11:42:32;93740.25;;;5.95;60.51
10606;BME280;5350;42.698;23.148;2023-11-19T11:45:00;93746.53;;;5.94;60.34
10606;BME280;5350;42.698;23.148;2023-11-19T11:50:28;93734.06;;;6.26;59.07
10606;BME280;5350;42.698;23.148;2023-11-19T11:53:17;93746.13;;;6.32;56.38
10606;BME280;5350;42.698;23.148;2023-11-19T11:56:00;93734.59;;;6.28;56.43
10606;BME280;5350;42.698;23.148;2023-11-19T11:58:32;93738.28;;;6.57;57.71
10606;BME280;5350;42.698;23.148;2023-11-19T12:01:02;93729.91;;;6.85;56.73
10606;BME280;5350;42.698;23.148;2023-11-19T12:03:31;93725.38;;;7.31;55.27
10606;BME280;5350;42.698;23.148;2023-11-19T12:05:59;93747.13;;;7.21;52.67
10606;BME280;5350;42.698;23.148;2023-11-19T12:08:28;93718.88;;;7.18;53.46
10606;BME280;5350;42.698;23.148;2023-11-19T12:10:57;93714.91;;;7.26;53.73
10606;BME280;5350;42.698;23.148;2023-11-19T12:13:53;93706.75;;;7.48;52.59
10606;BME280;5350;42.698;23.148;2023-11-19T12:16:21;93720.38;;;7.45;51.77
10606;BME280;5350;42.698;23.148;2023-11-19T12:18:47;93707.34;;;7.30;52.17
10606;BME280;5350;42.698;23.148;2023-11-19T12:21:27;93707.06;;;7.31;52.54
10606;BME280;5350;42.698;23.148;2023-11-19T12:23:57;93708.34;;;7.39;53.91
10606;BME280;5350;42.698;23.148;2023-11-19T12:26:33;93696.31;;;7.38;53.05
10606;BME280;5350;42.698;23.148;2023-11-19T12:29:01;93693.31;;;7.69;53.31
10606;BME280;5350;42.698;23.148;2023-11-19T12:31:29;93690.75;;;8.08;52.05
10606;BME280;5350;42.698;23.148;2023-11-19T12:33:56;93692.22;;;8.29;50.69
10606;BME280;5350;42.698;23.148;2023-11-19T12:36:23;93698.88;;;8.06;50.32
10606;BME280;5350;42.698;23.148;2023-11-19T12:38:50;93693.81;;;8.30;50.79
10606;BME280;5350;42.698;23.148;2023-11-19T12:41:18;93671.38;;;8.48;49.03
10606;BME280;5350;42.698;23.148;2023-11-19T12:43:49;93692.00;;;8.16;49.26
10606;BME280;5350;42.698;23.148;2023-11-19T12:46:20;93672.50;;;7.93;49.54
10606;BME280;5350;42.698;23.148;2023-11-19T12:48:47;93689.38;;;7.72;50.04
10606;BME280;5350;42.698;23.148;2023-11-19T12:51:14;93645.94;;;7.66;50.85
10606;BME280;5350;42.698;23.148;2023-11-19T12:53:50;93675.53;;;8.15;50.78
10606;BME280;5350;42.698;23.148;2023-11-19T12:56:21;93677.06;;;8.16;50.54
10606;BME280;5350;42.698;23.148;2023-11-19T12:58:48;93674.28;;;8.46;49.81
10606;BME280;5350;42.698;23.148;2023-11-19T13:01:16;93553.69;;;7.84;48.68
10606;BME280;5350;42.698;23.148;2023-11-19T13:03:44;93670.13;;;8.74;48.62
10606;BME280;5350;42.698;23.148;2023-11-19T13:06:12;93671.19;;;8.68;48.19
10606;BME280;5350;42.698;23.148;2023-11-19T13:08:40;93587.94;;;7.49;46.97
10606;BME280;5350;42.698;23.148;2023-11-19T13:11:07;93678.00;;;7.96;47.36
10606;BME280;5350;42.698;23.148;2023-11-19T13:13:57;93682.16;;;7.97;46.19
10606;BME280;5350;42.698;23.148;2023-11-19T13:16:25;93672.56;;;7.83;46.76
10606;BME280;5350;42.698;23.148;2023-11-19T13:18:52;93663.84;;;7.97;47.08
10606;BME280;5350;42.698;23.148;2023-11-19T13:21:19;93663.38;;;8.24;46.27